sensor_id;sensor_type;location;lat;lon;timestamp;pressure;altitude;pressure_sealevel;temperature;humidity
60479;BME280;46321;48.398;11.754;2023-08-20T00:00:58;96913.78;;;21.31;70.93
60479;BME280;46321;48.398;11.754;2023-08-20T00:03:24;96915.91;;;21.28;71.50
60479;BME280;46321;48.398;11.754;2023-08-20T00:05:50;96913.19;;;21.28;71.38
60479;BME280;46321;48.398;11.754;2023-08-20T00:08:15;96918.50;;;21.23;71.85
60479;BME280;46321;48.398;11.754;2023-08-20T00:10:41;96921.63;;;21.20;71.55
60479;BME280;46321;48.398;11.754;2023-08-20T00:13:06;96928.56;;;21.28;71.31
60479;BME280;46321;48.398;11.754;2023-08-20T00:15:31;96925.63;;;21.30;71.45
60479;BME280;46321;48.398;11.754;2023-08-20T00:17:57;96920.47;;;21.40;70.59
60479;BME280;46321;48.398;11.754;2023-08-20T00:20:23;96926.22;;;21.32;71.30
60479;BME280;46321;48.398;11.754;2023-08-20T00:22:48;96921.16;;;21.35;70.71
60479;BME280;46321;48.398;11.754;2023-08-20T00:25:15;96922.09;;;21.29;71.34
60479;BME280;46321;48.398;11.754;2023-08-20T00:27:41;96921.19;;;21.23;71.62
60479;BME280;46321;48.398;11.754;2023-08-20T00:30:07;96924.56;;;21.19;71.97
60479;BME280;46321;48.398;11.754;2023-08-20T00:32:33;96929.13;;;21.18;72.68
60479;BME280;46321;48.398;11.754;2023-08-20T00:34:58;96928.66;;;21.09;72.72
60479;BME280;46321;48.398;11.754;2023-08-20T00:37:25;96929.78;;;21.01;73.86
60479;BME280;46321;48.398;11.754;2023-08-20T00:39:50;96927.94;;;21.02;74.03
60479;BME280;46321;48.398;11.754;2023-08-20T00:42:15;96929.78;;;21.01;73.93
60479;BME280;46321;48.398;11.754;2023-08-20T00:44:41;96926.53;;;20.99;74.83
60479;BME280;46321;48.398;11.754;2023-08-20T00:47:09;96921.13;;;20.87;75.51
60479;BME280;46321;48.398;11.754;2023-08-20T00:49:35;96921.94;;;20.88;75.08
60479;BME280;46321;48.398;11.754;2023-08-20T00:52:00;96927.66;;;20.91;74.59
60479;BME280;46321;48.398;11.754;2023-08-20T00:54:27;96930.56;;;20.78;75.53
60479;BME280;46321;48.398;11.754;2023-08-20T00:56:53;96921.81;;;20.82;75.50
60479;BME280;46321;48.398;11.754;2023-08-20T00:59:19;96919.81;;;20.78;76.10
60479;BME280;46321;48.398;11.754;2023-08-20T01:01:45;96919.69;;;20.85;75.42
60479;BME280;46321;48.398;11.754;2023-08-20T01:04:11;96919.69;;;20.85;75.17
60479;BME280;46321;48.398;11.754;2023-08-20T01:06:46;96925.22;;;20.90;75.26
60479;BME280;46321;48.398;11.754;2023-08-20T01:09:46;96927.44;;;20.93;75.36
60479;BME280;46321;48.398;11.754;2023-08-20T01:12:14;96923.56;;;20.89;76.31
60479;BME280;46321;48.398;11.754;2023-08-20T01:14:40;96922.38;;;20.85;76.46
60479;BME280;46321;48.398;11.754;2023-08-20T01:17:05;96916.53;;;20.76;76.36
60479;BME280;46321;48.398;11.754;2023-08-20T01:19:31;96917.56;;;20.75;76.85
60479;BME280;46321;48.398;11.754;2023-08-20T01:22:21;96922.53;;;20.90;75.95
60479;BME280;46321;48.398;11.754;2023-08-20T01:25:18;96929.28;;;20.92;74.60
60479;BME280;46321;48.398;11.754;2023-08-20T01:28:02;96927.91;;;20.90;74.42
60479;BME280;46321;48.398;11.754;2023-08-20T01:30:29;96928.81;;;20.83;74.29
60479;BME280;46321;48.398;11.754;2023-08-20T01:32:56;96922.50;;;20.78;73.85
60479;BME280;46321;48.398;11.754;2023-08-20T01:35:24;96927.97;;;20.71;73.98
60479;BME280;46321;48.398;11.754;2023-08-20T01:37:49;96928.41;;;20.68;74.88
60479;BME280;46321;48.398;11.754;2023-08-20T01:40:15;96934.28;;;20.65;75.58
60479;BME280;46321;48.398;11.754;2023-08-20T01:42:40;96929.81;;;20.58;75.02
60479;BME280;46321;48.398;11.754;2023-08-20T01:45:22;96934.72;;;20.62;75.09
60479;BME280;46321;48.398;11.754;2023-08-20T01:47:47;96934.13;;;20.59;75.54
60479;BME280;46321;48.398;11.754;2023-08-20T01:50:13;96939.84;;;20.51;75.28
60479;BME280;46321;48.398;11.754;2023-08-20T01:52:38;96933.06;;;20.48;76.35
60479;BME280;46321;48.398;11.754;2023-08-20T01:55:04;96931.03;;;20.44;75.58
60479;BME280;46321;48.398;11.754;2023-08-20T01:57:30;96932.56;;;20.40;76.73
60479;BME280;46321;48.398;11.754;2023-08-20T01:59:56;96933.97;;;20.42;76.51
60479;BME280;46321;48.398;11.754;2023-08-20T02:02:23;96936.31;;;20.51;76.15
60479;BME280;46321;48.398;11.754;2023-08-20T02:04:48;96939.59;;;20.53;75.99
60479;BME280;46321;48.398;11.754;2023-08-20T02:07:13;96936.81;;;20.47;76.53
60479;BME280;46321;48.398;11.754;2023-08-20T02:09:39;96941.72;;;20.51;76.42
60479;BME280;46321;48.398;11.754;2023-08-20T02:12:04;96937.44;;;20.31;77.19
60479;BME280;46321;48.398;11.754;2023-08-20T02:14:29;96939.16;;;20.25;78.30
60479;BME280;46321;48.398;11.754;2023-08-20T02:16:58;96938.69;;;20.28;77.82
60479;BME280;46321;48.398;11.754;2023-08-20T02:19:23;96937.06;;;20.27;78.45
60479;BME280;46321;48.398;11.754;2023-08-20T02:21:49;96933.41;;;20.21;78.64
60479;BME280;46321;48.398;11.754;2023-08-20T02:24:14;96943.41;;;19.95;79.82
60479;BME280;46321;48.398;11.754;2023-08-20T02:26:40;96943.25;;;19.90;79.87
60479;BME280;46321;48.398;11.754;2023-08-20T02:29:05;96941.41;;;19.90;80.39
60479;BME280;46321;48.398;11.754;2023-08-20T02:31:30;96943.19;;;19.97;79.46
60479;BME280;46321;48.398;11.754;2023-08-20T02:33:56;96945.50;;;19.93;79.73
60479;BME280;46321;48.398;11.754;2023-08-20T02:36:21;96948.47;;;20.03;78.79
60479;BME280;46321;48.398;11.754;2023-08-20T02:38:46;96945.34;;;20.07;78.68
60479;BME280;46321;48.398;11.754;2023-08-20T02:41:11;96945.78;;;20.03;78.96
60479;BME280;46321;48.398;11.754;2023-08-20T02:43:37;96951.56;;;19.88;79.82
60479;BME280;46321;48.398;11.754;2023-08-20T02:46:02;96944.31;;;19.89;79.18
60479;BME280;46321;48.398;11.754;2023-08-20T02:48:28;96949.97;;;19.80;79.86
60479;BME280;46321;48.398;11.754;2023-08-20T02:50:54;96947.22;;;19.87;80.04
60479;BME280;46321;48.398;11.754;2023-08-20T02:53:20;96956.16;;;19.81;79.63
60479;BME280;46321;48.398;11.754;2023-08-20T02:55:45;96955.13;;;19.82;79.30
60479;BME280;46321;48.398;11.754;2023-08-20T02:58:10;96953.50;;;19.81;79.67
60479;BME280;46321;48.398;11.754;2023-08-20T03:00:36;96955.41;;;19.74;80.66
60479;BME280;46321;48.398;11.754;2023-08-20T03:03:01;96961.78;;;19.79;79.97
60479;BME280;46321;48.398;11.754;2023-08-20T03:05:31;96961.16;;;19.59;80.73
60479;BME280;46321;48.398;11.754;2023-08-20T03:07:56;96958.88;;;19.62;80.78
60479;BME280;46321;48.398;11.754;2023-08-20T03:10:22;96962.50;;;19.68;81.02
60479;BME280;46321;48.398;11.754;2023-08-20T03:12:47;96963.19;;;19.63;81.41
60479;BME280;46321;48.398;11.754;2023-08-20T03:15:12;96960.06;;;19.66;81.34
60479;BME280;46321;48.398;11.754;2023-08-20T03:17:37;96971.22;;;19.63;81.36
60479;BME280;46321;48.398;11.754;2023-08-20T03:20:03;96966.91;;;19.62;80.63
60479;BME280;46321;48.398;11.754;2023-08-20T03:22:31;96967.34;;;19.59;81.28
60479;BME280;46321;48.398;11.754;2023-08-20T03:24:56;96967.72;;;19.63;81.23
60479;BME280;46321;48.398;11.754;2023-08-20T03:27:21;96962.88;;;19.53;81.28
60479;BME280;46321;48.398;11.754;2023-08-20T03:29:46;96972.44;;;19.67;80.35
60479;BME280;46321;48.398;11.754;2023-08-20T03:32:12;96968.53;;;19.63;81.42
60479;BME280;46321;48.398;11.754;2023-08-20T03:34:37;96964.22;;;19.62;81.00
60479;BME280;46321;48.398;11.754;2023-08-20T03:37:03;96975.78;;;19.63;81.39
60479;BME280;46321;48.398;11.754;2023-08-20T03:39:29;96980.34;;;19.62;81.89
60479;BME280;46321;48.398;11.754;2023-08-20T03:41:54;96974.34;;;19.60;81.94
60479;BME280;46321;48.398;11.754;2023-08-20T03:44:19;96981.81;;;19.58;82.41
60479;BME280;46321;48.398;11.754;2023-08-20T03:46:45;96985.09;;;19.60;82.51
60479;BME280;46321;48.398;11.754;2023-08-20T03:49:10;96987.41;;;19.56;83.53
60479;BME280;46321;48.398;11.754;2023-08-20T03:51:36;96977.03;;;19.60;82.68
60479;BME280;46321;48.398;11.754;2023-08-20T03:54:01;96980.72;;;19.66;82.64
60479;BME280;46321;48.398;11.754;2023-08-20T03:56:27;96977.38;;;19.71;82.75
60479;BME280;46321;48.398;11.754;2023-08-20T03:58:52;96978.84;;;19.66;82.62
60479;BME280;46321;48.398;11.754;2023-08-20T04:01:20;96971.81;;;19.65;82.61
60479;BME280;46321;48.398;11.754;2023-08-20T04:03:46;96972.44;;;19.67;82.80
60479;BME280;46321;48.398;11.754;2023-08-20T04:06:12;96974.44;;;19.72;82.75
60479;BME280;46321;48.398;11.754;2023-08-20T04:08:37;96978.91;;;19.78;81.72
60479;BME280;46321;48.398;11.754;2023-08-20T04:11:02;96979.75;;;19.79;81.97
60479;BME280;46321;48.398;11.754;2023-08-20T04:13:29;96987.22;;;19.77;82.04
60479;BME280;46321;48.398;11.754;2023-08-20T04:15:54;96986.31;;;19.83;81.64
60479;BME280;46321;48.398;11.754;2023-08-20T04:18:19;96988.94;;;19.71;82.05
60479;BME280;46321;48.398;11.754;2023-08-20T04:20:45;96992.88;;;19.68;81.91
60479;BME280;46321;48.398;11.754;2023-08-20T04:23:10;96989.97;;;19.70;81.85
60479;BME280;46321;48.398;11.754;2023-08-20T04:25:35;96994.50;;;19.70;82.08
60479;BME280;46321;48.398;11.754;2023-08-20T04:28:00;96990.19;;;19.68;82.09
60479;BME280;46321;48.398;11.754;2023-08-20T04:30:26;96993.06;;;19.67;82.21
60479;BME280;46321;48.398;11.754;2023-08-20T04:32:51;97001.53;;;19.71;82.51
60479;BME280;46321;48.398;11.754;2023-08-20T04:35:16;96996.97;;;19.71;82.06
60479;BME280;46321;48.398;11.754;2023-08-20T04:37:42;97000.75;;;19.63;83.07
60479;BME280;46321;48.398;11.754;2023-08-20T04:40:07;96999.94;;;19.63;82.39
60479;BME280;46321;48.398;11.754;2023-08-20T04:42:33;96999.72;;;19.64;82.18
60479;BME280;46321;48.398;11.754;2023-08-20T04:44:58;96990.03;;;19.63;82.36
60479;BME280;46321;48.398;11.754;2023-08-20T04:47:23;96993.78;;;19.62;82.29
60479;BME280;46321;48.398;11.754;2023-08-20T04:49:49;97004.28;;;19.64;81.92
60479;BME280;46321;48.398;11.754;2023-08-20T04:52:14;97004.94;;;19.59;82.25
60479;BME280;46321;48.398;11.754;2023-08-20T04:54:39;97000.00;;;19.56;83.22
60479;BME280;46321;48.398;11.754;2023-08-20T04:57:04;97006.72;;;19.65;82.79
60479;BME280;46321;48.398;11.754;2023-08-20T04:59:30;97011.88;;;19.67;82.60
60479;BME280;46321;48.398;11.754;2023-08-20T05:01:55;97009.81;;;19.69;82.43
60479;BME280;46321;48.398;11.754;2023-08-20T05:04:20;97004.50;;;19.62;83.37
60479;BME280;46321;48.398;11.754;2023-08-20T05:06:45;97006.72;;;19.65;83.25
60479;BME280;46321;48.398;11.754;2023-08-20T05:09:12;96998.84;;;19.71;82.70
60479;BME280;46321;48.398;11.754;2023-08-20T05:11:37;97006.91;;;19.71;82.57
60479;BME280;46321;48.398;11.754;2023-08-20T05:14:03;97012.81;;;19.79;81.96
60479;BME280;46321;48.398;11.754;2023-08-20T05:16:28;97010.28;;;19.85;81.91
60479;BME280;46321;48.398;11.754;2023-08-20T05:18:53;97015.66;;;19.85;82.50
60479;BME280;46321;48.398;11.754;2023-08-20T05:21:18;97015.47;;;19.79;82.73
60479;BME280;46321;48.398;11.754;2023-08-20T05:23:44;97017.41;;;19.72;83.34
60479;BME280;46321;48.398;11.754;2023-08-20T05:26:09;97023.09;;;19.83;83.70
60479;BME280;46321;48.398;11.754;2023-08-20T05:28:35;97013.56;;;19.87;83.78
60479;BME280;46321;48.398;11.754;2023-08-20T05:31:00;97016.00;;;20.07;83.09
60479;BME280;46321;48.398;11.754;2023-08-20T05:33:26;97021.06;;;20.22;82.15
60479;BME280;46321;48.398;11.754;2023-08-20T05:35:51;97010.44;;;20.28;82.35
60479;BME280;46321;48.398;11.754;2023-08-20T05:38:17;97007.28;;;20.50;80.08
60479;BME280;46321;48.398;11.754;2023-08-20T05:40:42;97013.00;;;20.72;78.55
60479;BME280;46321;48.398;11.754;2023-08-20T05:43:07;97014.53;;;20.80;78.51
60479;BME280;46321;48.398;11.754;2023-08-20T05:45:33;97016.28;;;21.05;77.18
60479;BME280;46321;48.398;11.754;2023-08-20T05:47:58;97017.50;;;21.21;76.64
60479;BME280;46321;48.398;11.754;2023-08-20T05:50:24;97015.16;;;21.37;75.40
60479;BME280;46321;48.398;11.754;2023-08-20T05:52:49;97022.88;;;21.57;74.91
60479;BME280;46321;48.398;11.754;2023-08-20T05:55:15;97011.44;;;21.74;75.31
60479;BME280;46321;48.398;11.754;2023-08-20T05:57:41;97014.03;;;21.93;74.17
60479;BME280;46321;48.398;11.754;2023-08-20T06:00:08;97015.16;;;22.09;73.26
60479;BME280;46321;48.398;11.754;2023-08-20T06:02:34;97017.94;;;22.26;72.75
60479;BME280;46321;48.398;11.754;2023-08-20T06:05:00;97018.84;;;22.44;71.96
60479;BME280;46321;48.398;11.754;2023-08-20T06:07:25;97021.59;;;22.61;71.21
60479;BME280;46321;48.398;11.754;2023-08-20T06:09:50;97014.28;;;22.74;71.36
60479;BME280;46321;48.398;11.754;2023-08-20T06:12:16;97015.38;;;22.90;70.17
60479;BME280;46321;48.398;11.754;2023-08-20T06:14:42;97021.63;;;23.08;68.90
60479;BME280;46321;48.398;11.754;2023-08-20T06:17:07;97015.19;;;23.26;68.71
60479;BME280;46321;48.398;11.754;2023-08-20T06:19:33;97026.81;;;23.44;67.50
60479;BME280;46321;48.398;11.754;2023-08-20T06:21:59;97021.09;;;23.58;67.57
60479;BME280;46321;48.398;11.754;2023-08-20T06:24:24;97025.09;;;23.72;67.00
60479;BME280;46321;48.398;11.754;2023-08-20T06:26:49;97032.34;;;23.89;66.93
60479;BME280;46321;48.398;11.754;2023-08-20T06:29:14;97028.91;;;23.94;65.35
60479;BME280;46321;48.398;11.754;2023-08-20T06:31:40;97024.31;;;23.94;64.22
60479;BME280;46321;48.398;11.754;2023-08-20T06:34:05;97030.41;;;24.24;62.27
60479;BME280;46321;48.398;11.754;2023-08-20T06:36:31;97036.25;;;24.38;60.82
60479;BME280;46321;48.398;11.754;2023-08-20T06:38:56;97034.94;;;24.41;60.24
60479;BME280;46321;48.398;11.754;2023-08-20T06:41:23;97034.00;;;24.52;61.28
60479;BME280;46321;48.398;11.754;2023-08-20T06:43:48;97033.66;;;24.71;60.96
60479;BME280;46321;48.398;11.754;2023-08-20T06:46:13;97037.66;;;24.91;61.05
60479;BME280;46321;48.398;11.754;2023-08-20T06:48:39;97041.22;;;24.97;59.70
60479;BME280;46321;48.398;11.754;2023-08-20T06:51:22;97034.91;;;24.86;57.99
60479;BME280;46321;48.398;11.754;2023-08-20T06:53:48;97037.66;;;25.19;59.67
60479;BME280;46321;48.398;11.754;2023-08-20T06:56:14;97030.09;;;25.21;59.40
60479;BME280;46321;48.398;11.754;2023-08-20T06:58:41;97026.44;;;25.37;58.54
60479;BME280;46321;48.398;11.754;2023-08-20T07:01:07;97035.75;;;25.52;57.66
60479;BME280;46321;48.398;11.754;2023-08-20T07:03:42;97029.06;;;25.65;57.44
60479;BME280;46321;48.398;11.754;2023-08-20T07:06:09;97030.06;;;25.87;56.83
60479;BME280;46321;48.398;11.754;2023-08-20T07:08:35;97036.28;;;25.82;56.27
60479;BME280;46321;48.398;11.754;2023-08-20T07:11:00;97036.69;;;26.06;56.21
60479;BME280;46321;48.398;11.754;2023-08-20T07:13:26;97046.25;;;26.25;56.22
60479;BME280;46321;48.398;11.754;2023-08-20T07:15:51;97055.53;;;26.39;55.95
60479;BME280;46321;48.398;11.754;2023-08-20T07:18:17;97048.09;;;26.73;55.90
60479;BME280;46321;48.398;11.754;2023-08-20T07:20:42;97046.00;;;27.01;53.42
60479;BME280;46321;48.398;11.754;2023-08-20T07:23:09;97056.09;;;27.21;53.54
60479;BME280;46321;48.398;11.754;2023-08-20T07:25:38;97048.75;;;27.43;53.65
60479;BME280;46321;48.398;11.754;2023-08-20T07:28:08;97048.47;;;27.65;51.97
60479;BME280;46321;48.398;11.754;2023-08-20T07:30:34;97057.19;;;27.88;52.01
60479;BME280;46321;48.398;11.754;2023-08-20T07:33:00;97058.81;;;27.84;49.90
60479;BME280;46321;48.398;11.754;2023-08-20T07:35:25;97063.63;;;28.19;48.24
60479;BME280;46321;48.398;11.754;2023-08-20T07:37:50;97061.94;;;28.49;47.75
60479;BME280;46321;48.398;11.754;2023-08-20T07:40:16;97071.09;;;28.64;45.74
60479;BME280;46321;48.398;11.754;2023-08-20T07:42:41;97072.59;;;28.91;46.69
60479;BME280;46321;48.398;11.754;2023-08-20T07:45:07;97066.25;;;29.11;45.85
60479;BME280;46321;48.398;11.754;2023-08-20T07:47:36;97062.72;;;29.46;44.37
60479;BME280;46321;48.398;11.754;2023-08-20T07:50:02;97062.16;;;29.44;43.92
60479;BME280;46321;48.398;11.754;2023-08-20T07:52:27;97071.72;;;29.81;43.66
60479;BME280;46321;48.398;11.754;2023-08-20T07:54:52;97061.28;;;30.13;42.19
60479;BME280;46321;48.398;11.754;2023-08-20T07:57:17;97068.78;;;30.27;41.17
60479;BME280;46321;48.398;11.754;2023-08-20T07:59:43;97064.50;;;30.45;41.50
60479;BME280;46321;48.398;11.754;2023-08-20T08:02:08;97062.91;;;30.83;40.58
60479;BME280;46321;48.398;11.754;2023-08-20T08:04:34;97072.97;;;31.26;40.06
60479;BME280;46321;48.398;11.754;2023-08-20T08:06:59;97068.75;;;31.53;39.03
60479;BME280;46321;48.398;11.754;2023-08-20T08:09:31;97073.31;;;31.92;39.61
60479;BME280;46321;48.398;11.754;2023-08-20T08:11:58;97069.84;;;32.00;39.34
60479;BME280;46321;48.398;11.754;2023-08-20T08:14:24;97066.16;;;32.52;38.18
60479;BME280;46321;48.398;11.754;2023-08-20T08:16:50;97075.50;;;33.02;36.99
60479;BME280;46321;48.398;11.754;2023-08-20T08:19:16;97069.03;;;33.35;36.16
60479;BME280;46321;48.398;11.754;2023-08-20T08:21:42;97065.03;;;33.65;35.68
60479;BME280;46321;48.398;11.754;2023-08-20T08:24:08;97068.88;;;33.87;35.59
60479;BME280;46321;48.398;11.754;2023-08-20T08:26:34;97066.22;;;34.04;34.71
60479;BME280;46321;48.398;11.754;2023-08-20T08:29:00;97062.16;;;34.43;33.46
60479;BME280;46321;48.398;11.754;2023-08-20T08:31:25;97053.63;;;34.62;32.70
60479;BME280;46321;48.398;11.754;2023-08-20T08:33:51;97057.41;;;34.93;33.58
60479;BME280;46321;48.398;11.754;2023-08-20T08:36:16;97060.50;;;35.09;32.32
60479;BME280;46321;48.398;11.754;2023-08-20T08:38:42;97058.88;;;35.52;31.96
60479;BME280;46321;48.398;11.754;2023-08-20T08:41:11;97061.03;;;35.95;31.61
60479;BME280;46321;48.398;11.754;2023-08-20T08:43:38;97067.81;;;36.06;30.94
60479;BME280;46321;48.398;11.754;2023-08-20T08:46:06;97063.84;;;36.16;31.16
60479;BME280;46321;48.398;11.754;2023-08-20T08:48:33;97059.06;;;36.35;29.48
60479;BME280;46321;48.398;11.754;2023-08-20T08:51:00;97062.75;;;35.51;30.30
60479;BME280;46321;48.398;11.754;2023-08-20T08:53:26;97057.50;;;35.85;30.55
60479;BME280;46321;48.398;11.754;2023-08-20T08:55:51;97055.22;;;36.36;29.39
60479;BME280;46321;48.398;11.754;2023-08-20T08:58:16;97047.09;;;36.61;30.43
60479;BME280;46321;48.398;11.754;2023-08-20T09:00:42;97049.19;;;37.28;30.29
60479;BME280;46321;48.398;11.754;2023-08-20T09:03:07;97044.84;;;38.08;28.83
60479;BME280;46321;48.398;11.754;2023-08-20T09:05:32;97046.44;;;37.96;27.76
60479;BME280;46321;48.398;11.754;2023-08-20T09:07:57;97048.50;;;38.24;28.26
60479;BME280;46321;48.398;11.754;2023-08-20T09:10:26;97054.63;;;38.55;27.95
60479;BME280;46321;48.398;11.754;2023-08-20T09:12:54;97054.56;;;39.22;27.41
60479;BME280;46321;48.398;11.754;2023-08-20T09:15:19;97055.50;;;38.72;27.37
60479;BME280;46321;48.398;11.754;2023-08-20T09:17:46;97058.94;;;39.35;26.54
60479;BME280;46321;48.398;11.754;2023-08-20T09:20:12;97063.25;;;40.62;25.02
60479;BME280;46321;48.398;11.754;2023-08-20T09:22:37;97065.97;;;40.95;25.15
60479;BME280;46321;48.398;11.754;2023-08-20T09:25:05;97055.22;;;41.53;24.42
60479;BME280;46321;48.398;11.754;2023-08-20T09:27:38;97056.06;;;42.28;24.08
60479;BME280;46321;48.398;11.754;2023-08-20T09:30:06;97067.47;;;43.00;23.32
60479;BME280;46321;48.398;11.754;2023-08-20T09:32:32;97067.72;;;42.10;23.03
60479;BME280;46321;48.398;11.754;2023-08-20T09:34:57;97066.47;;;42.85;21.79
60479;BME280;46321;48.398;11.754;2023-08-20T09:37:24;97075.75;;;44.08;21.86
60479;BME280;46321;48.398;11.754;2023-08-20T09:39:50;97076.34;;;43.13;22.41
60479;BME280;46321;48.398;11.754;2023-08-20T09:42:15;97075.84;;;44.75;20.63
60479;BME280;46321;48.398;11.754;2023-08-20T09:44:43;97082.53;;;44.59;20.34
60479;BME280;46321;48.398;11.754;2023-08-20T09:47:09;97082.91;;;45.36;19.92
60479;BME280;46321;48.398;11.754;2023-08-20T09:49:42;97078.06;;;45.26;19.41
60479;BME280;46321;48.398;11.754;2023-08-20T09:52:10;97079.84;;;44.74;19.00
60479;BME280;46321;48.398;11.754;2023-08-20T09:57:07;97070.22;;;46.56;19.13
60479;BME280;46321;48.398;11.754;2023-08-20T09:59:35;97063.47;;;46.24;18.86
60479;BME280;46321;48.398;11.754;2023-08-20T10:02:01;97071.75;;;45.51;19.07
60479;BME280;46321;48.398;11.754;2023-08-20T10:04:27;97069.94;;;44.91;19.38
60479;BME280;46321;48.398;11.754;2023-08-20T10:06:53;97069.41;;;46.63;18.60
60479;BME280;46321;48.398;11.754;2023-08-20T10:09:20;97067.03;;;46.06;17.93
60479;BME280;46321;48.398;11.754;2023-08-20T10:11:46;97069.66;;;44.44;20.89
60479;BME280;46321;48.398;11.754;2023-08-20T10:14:12;97063.31;;;45.25;20.24
60479;BME280;46321;48.398;11.754;2023-08-20T10:16:38;97061.06;;;46.30;18.66
60479;BME280;46321;48.398;11.754;2023-08-20T10:19:05;97067.44;;;46.34;18.94
60479;BME280;46321;48.398;11.754;2023-08-20T10:21:32;97066.16;;;46.79;19.38
60479;BME280;46321;48.398;11.754;2023-08-20T10:24:03;97066.25;;;45.80;19.30
60479;BME280;46321;48.398;11.754;2023-08-20T10:26:28;97061.00;;;43.62;21.54
60479;BME280;46321;48.398;11.754;2023-08-20T10:31:57;97062.25;;;45.89;18.60
60479;BME280;46321;48.398;11.754;2023-08-20T10:34:33;97057.97;;;44.91;18.21
60479;BME280;46321;48.398;11.754;2023-08-20T10:37:01;97065.25;;;45.10;18.50
60479;BME280;46321;48.398;11.754;2023-08-20T10:39:28;97055.75;;;45.33;18.68
60479;BME280;46321;48.398;11.754;2023-08-20T10:45:05;97059.03;;;42.11;20.05
60479;BME280;46321;48.398;11.754;2023-08-20T10:47:47;97049.94;;;41.67;21.52
60479;BME280;46321;48.398;11.754;2023-08-20T10:50:18;97052.72;;;40.52;22.72
60479;BME280;46321;48.398;11.754;2023-08-20T10:52:54;97047.94;;;39.84;22.05
60479;BME280;46321;48.398;11.754;2023-08-20T10:55:23;97055.34;;;39.80;23.12
60479;BME280;46321;48.398;11.754;2023-08-20T10:57:55;97047.25;;;39.87;23.13
60479;BME280;46321;48.398;11.754;2023-08-20T11:00:22;97036.13;;;38.97;24.23
60479;BME280;46321;48.398;11.754;2023-08-20T11:02:47;97053.69;;;38.13;23.56
60479;BME280;46321;48.398;11.754;2023-08-20T11:05:18;97049.22;;;37.62;25.61
60479;BME280;46321;48.398;11.754;2023-08-20T11:07:48;97043.88;;;37.44;25.04
60479;BME280;46321;48.398;11.754;2023-08-20T11:10:15;97047.78;;;36.79;25.65
60479;BME280;46321;48.398;11.754;2023-08-20T11:12:41;97047.44;;;36.38;27.90
60479;BME280;46321;48.398;11.754;2023-08-20T11:15:08;97056.16;;;36.40;27.33
60479;BME280;46321;48.398;11.754;2023-08-20T11:17:34;97051.31;;;36.37;27.57
60479;BME280;46321;48.398;11.754;2023-08-20T11:20:00;97055.41;;;35.73;27.10
60479;BME280;46321;48.398;11.754;2023-08-20T11:22:27;97057.09;;;34.94;29.18
60479;BME280;46321;48.398;11.754;2023-08-20T11:24:52;97053.06;;;35.18;28.98
60479;BME280;46321;48.398;11.754;2023-08-20T11:27:17;97047.88;;;34.81;29.29
60479;BME280;46321;48.398;11.754;2023-08-20T11:29:42;97049.78;;;34.63;29.73
60479;BME280;46321;48.398;11.754;2023-08-20T11:32:10;97041.31;;;34.50;31.34
60479;BME280;46321;48.398;11.754;2023-08-20T11:34:36;97036.16;;;34.49;29.33
60479;BME280;46321;48.398;11.754;2023-08-20T11:37:03;97036.22;;;34.93;29.55
60479;BME280;46321;48.398;11.754;2023-08-20T11:39:29;97046.53;;;34.61;29.78
60479;BME280;46321;48.398;11.754;2023-08-20T11:41:54;97036.78;;;33.41;29.94
60479;BME280;46321;48.398;11.754;2023-08-20T11:44:20;97048.88;;;33.95;31.25
60479;BME280;46321;48.398;11.754;2023-08-20T11:46:46;97032.84;;;34.20;31.44
60479;BME280;46321;48.398;11.754;2023-08-20T11:49:13;97042.28;;;33.96;31.24
60479;BME280;46321;48.398;11.754;2023-08-20T11:51:41;97033.56;;;33.94;32.44
60479;BME280;46321;48.398;11.754;2023-08-20T11:54:13;97032.88;;;33.88;30.77
60479;BME280;46321;48.398;11.754;2023-08-20T11:56:51;97033.69;;;33.89;30.45
60479;BME280;46321;48.398;11.754;2023-08-20T11:59:19;97022.41;;;33.99;30.17
60479;BME280;46321;48.398;11.754;2023-08-20T12:02:10;97031.69;;;33.48;30.73
60479;BME280;46321;48.398;11.754;2023-08-20T12:04:36;97020.94;;;33.38;31.85
60479;BME280;46321;48.398;11.754;2023-08-20T12:07:03;97025.25;;;33.53;31.57
60479;BME280;46321;48.398;11.754;2023-08-20T12:09:30;97024.38;;;33.67;32.31
60479;BME280;46321;48.398;11.754;2023-08-20T12:11:55;97028.03;;;33.62;32.64
60479;BME280;46321;48.398;11.754;2023-08-20T12:14:21;97028.00;;;33.53;32.41
60479;BME280;46321;48.398;11.754;2023-08-20T12:16:47;97019.06;;;33.47;32.79
60479;BME280;46321;48.398;11.754;2023-08-20T12:19:13;97020.75;;;33.80;33.21
60479;BME280;46321;48.398;11.754;2023-08-20T12:21:39;97014.56;;;33.52;31.51
60479;BME280;46321;48.398;11.754;2023-08-20T12:24:04;97010.56;;;33.49;32.12
60479;BME280;46321;48.398;11.754;2023-08-20T12:26:30;97009.94;;;33.61;32.20
60479;BME280;46321;48.398;11.754;2023-08-20T12:28:55;97012.31;;;33.54;32.12
60479;BME280;46321;48.398;11.754;2023-08-20T12:31:20;97011.53;;;33.53;32.79
60479;BME280;46321;48.398;11.754;2023-08-20T12:33:45;97008.94;;;33.25;32.58
60479;BME280;46321;48.398;11.754;2023-08-20T12:36:11;97010.06;;;33.24;32.29
60479;BME280;46321;48.398;11.754;2023-08-20T12:38:36;97011.41;;;33.12;33.24
60479;BME280;46321;48.398;11.754;2023-08-20T12:41:01;97004.00;;;33.13;31.51
60479;BME280;46321;48.398;11.754;2023-08-20T12:43:29;97002.97;;;33.23;33.04
60479;BME280;46321;48.398;11.754;2023-08-20T12:45:54;97002.97;;;33.23;31.75
60479;BME280;46321;48.398;11.754;2023-08-20T12:48:19;97004.69;;;33.42;32.57
60479;BME280;46321;48.398;11.754;2023-08-20T12:50:44;96998.16;;;33.29;32.64
60479;BME280;46321;48.398;11.754;2023-08-20T12:53:10;96994.25;;;33.53;31.99
60479;BME280;46321;48.398;11.754;2023-08-20T12:55:35;97001.00;;;33.46;33.01